Time;durP1;ratioP1;P1;durP2;ratioP2;P2;SDS_P1;SDS_P2;PMS_P1;PMS_P2;Temp;Humidity;BMP_temperature;BMP_pressure;BME280_temperature;BME280_humidity;BME280_pressure;Samples;Min_cycle;Max_cycle;Signal;HPM_P1;HPM_P2
2021/01/15 00:01:03;;;;;;;12.97;1.80;;;7.80;99.90;;;;;;5052460;28;20239;-78
2021/01/15 00:03:33;;;;;;;7.20;1.00;;;7.80;99.90;;;;;;5051867;28;20757;-78
2021/01/15 00:06:05;;;;;;;10.93;1.60;;;7.90;99.90;;;;;;5052711;28;20238;-78
2021/01/15 00:08:32;;;;;;;8.60;1.50;;;7.90;99.90;;;;;;5055440;28;20249;-78
2021/01/15 00:10:58;;;;;;;6.53;1.33;;;8.00;99.90;;;;;;5053791;28;20239;-77
2021/01/15 00:13:25;;;;;;;11.13;1.90;;;8.00;99.90;;;;;;5054937;28;20238;-78
2021/01/15 00:15:52;;;;;;;8.37;1.47;;;8.00;99.90;;;;;;5064629;28;20237;-78
2021/01/15 00:18:18;;;;;;;8.63;1.70;;;8.00;99.90;;;;;;5052013;28;20227;-78
2021/01/15 00:20:46;;;;;;;9.87;2.03;;;8.00;99.90;;;;;;5052040;28;20296;-78
2021/01/15 00:23:12;;;;;;;14.30;1.90;;;8.00;99.90;;;;;;5052230;28;20570;-78
2021/01/15 00:25:39;;;;;;;10.00;1.67;;;7.90;99.90;;;;;;5060510;28;20238;-78
2021/01/15 00:28:05;;;;;;;6.53;1.10;;;7.90;99.90;;;;;;5072049;28;20265;-78
2021/01/15 00:30:32;;;;;;;9.27;1.53;;;7.90;99.90;;;;;;5072612;28;20241;-78
2021/01/15 00:32:58;;;;;;;7.30;1.27;;;7.90;99.90;;;;;;5071883;28;20242;-78
2021/01/15 00:35:25;;;;;;;7.30;1.30;;;8.00;99.90;;;;;;5072488;28;20230;-78
2021/01/15 00:37:52;;;;;;;9.50;1.27;;;8.00;99.90;;;;;;5072471;28;20278;-78
2021/01/15 00:40:18;;;;;;;8.50;1.60;;;8.00;99.90;;;;;;5072569;28;20606;-78
2021/01/15 00:42:45;;;;;;;9.37;1.17;;;8.00;99.90;;;;;;5072580;28;20244;-78
2021/01/15 00:45:16;;;;;;;8.00;2.00;;;7.90;99.90;;;;;;5072109;28;20739;-79
2021/01/15 00:47:43;;;;;;;11.30;1.53;;;7.90;99.90;;;;;;5057539;28;20261;-78
2021/01/15 00:50:11;;;;;;;10.23;1.60;;;7.80;99.90;;;;;;5052169;28;20346;-79
2021/01/15 00:52:37;;;;;;;9.80;1.90;;;7.70;99.90;;;;;;5060572;28;20206;-78
2021/01/15 00:55:06;;;;;;;9.30;1.60;;;7.70;99.90;;;;;;5071871;28;20653;-78
2021/01/15 00:57:37;;;;;;;8.37;1.77;;;7.60;99.90;;;;;;5054799;28;20283;-78
2021/01/15 01:00:06;;;;;;;8.03;1.60;;;7.60;99.90;;;;;;5051690;28;20208;-78
2021/01/15 01:02:34;;;;;;;6.00;1.60;;;7.50;99.90;;;;;;5052024;28;20231;-78
2021/01/15 01:05:01;;;;;;;5.37;1.27;;;7.40;99.90;;;;;;5051823;28;20600;-78
2021/01/15 01:07:27;;;;;;;4.70;1.57;;;7.40;99.90;;;;;;5051865;28;20361;-78
2021/01/15 01:09:53;;;;;;;5.87;1.83;;;7.40;99.90;;;;;;5051760;28;20246;-78
2021/01/15 01:12:21;;;;;;;5.17;1.70;;;7.30;99.90;;;;;;5062768;28;20259;-78
2021/01/15 01:14:47;;;;;;;7.07;2.10;;;7.30;99.90;;;;;;5071599;28;20249;-78
2021/01/15 01:17:13;;;;;;;5.97;1.80;;;7.30;99.90;;;;;;5071975;28;20235;-78
2021/01/15 01:19:40;;;;;;;5.20;2.20;;;7.30;99.90;;;;;;5064861;28;20309;-76
2021/01/15 01:22:06;;;;;;;4.17;2.50;;;7.20;99.90;;;;;;5051776;28;20266;-78
2021/01/15 01:24:32;;;;;;;4.57;2.50;;;7.20;99.90;;;;;;5051551;28;20231;-79
2021/01/15 01:26:59;;;;;;;3.77;2.40;;;7.10;99.90;;;;;;5051789;28;20311;-78
2021/01/15 01:29:26;;;;;;;6.87;2.77;;;7.10;99.90;;;;;;5050784;28;20283;-78
2021/01/15 01:31:53;;;;;;;6.10;2.93;;;7.00;99.90;;;;;;5052081;28;20295;-78
2021/01/15 01:34:19;;;;;;;5.67;2.87;;;7.00;99.90;;;;;;5051750;28;20234;-78
2021/01/15 01:36:45;;;;;;;4.20;2.90;;;7.00;99.90;;;;;;5052654;28;20231;-78
2021/01/15 01:39:12;;;;;;;7.33;3.33;;;7.00;99.90;;;;;;5055594;28;20338;-78
2021/01/15 01:41:38;;;;;;;4.63;3.40;;;7.00;99.90;;;;;;5055150;28;20288;-78
2021/01/15 01:44:05;;;;;;;5.97;3.60;;;7.00;99.90;;;;;;5055073;28;20238;-78
2021/01/15 01:46:33;;;;;;;5.97;3.20;;;7.00;99.90;;;;;;5055176;28;20339;-77
2021/01/15 01:48:59;;;;;;;6.07;3.30;;;6.90;99.90;;;;;;5063900;28;20285;-78
2021/01/15 01:51:29;;;;;;;6.77;4.50;;;6.90;99.90;;;;;;5075392;28;20286;-78
2021/01/15 01:53:56;;;;;;;5.97;3.63;;;6.90;99.90;;;;;;5075144;28;20285;-78
2021/01/15 01:56:22;;;;;;;7.43;3.80;;;6.90;99.90;;;;;;5056879;28;20235;-78
2021/01/15 01:58:50;;;;;;;5.97;3.70;;;6.90;99.90;;;;;;5055013;28;20254;-78
2021/01/15 02:01:18;;;;;;;6.10;3.57;;;6.90;99.90;;;;;;5054688;28;20683;-78
2021/01/15 02:03:46;;;;;;;6.77;3.60;;;6.80;99.90;;;;;;5055164;28;20203;-78
2021/01/15 02:06:14;;;;;;;6.83;4.03;;;6.80;99.90;;;;;;5055125;28;20286;-78
2021/01/15 02:08:40;;;;;;;8.30;3.97;;;6.80;99.90;;;;;;5055127;28;20258;-78
2021/01/15 02:11:19;;;;;;;6.50;3.90;;;6.80;99.90;;;;;;5054974;28;20286;-78
2021/01/15 02:13:58;;;;;;;6.07;4.00;;;6.80;99.90;;;;;;5054366;28;20253;-78
2021/01/15 02:16:28;;;;;;;7.70;3.83;;;6.80;99.90;;;;;;5054506;28;20200;-78
2021/01/15 02:19:02;;;;;;;5.20;3.93;;;6.80;99.90;;;;;;5053814;28;20301;-78
2021/01/15 02:22:14;;;;;;;6.27;4.10;;;6.80;99.90;;;;;;5066476;28;20268;-78
2021/01/15 02:25:17;;;;;;;7.73;3.80;;;6.80;99.90;;;;;;5074348;28;20209;-78
2021/01/15 02:28:06;;;;;;;6.57;3.60;;;6.70;99.90;;;;;;5073822;28;20336;-78
2021/01/15 02:30:49;;;;;;;6.90;4.20;;;6.80;99.90;;;;;;5073293;28;20213;-78
2021/01/15 02:33:26;;;;;;;6.13;3.80;;;6.70;99.90;;;;;;5073624;28;20207;-78
2021/01/15 02:36:00;;;;;;;5.33;3.63;;;6.70;99.90;;;;;;5074440;28;20639;-78
2021/01/15 02:38:37;;;;;;;7.57;4.27;;;6.70;99.90;;;;;;5074348;28;20245;-78
2021/01/15 02:41:18;;;;;;;9.13;3.90;;;6.70;99.90;;;;;;5066985;28;20205;-79
2021/01/15 02:43:49;;;;;;;5.87;4.10;;;6.70;99.90;;;;;;5054039;28;20231;-78
2021/01/15 02:46:18;;;;;;;7.23;4.00;;;6.70;99.90;;;;;;5054206;28;20334;-79
2021/01/15 02:48:48;;;;;;;8.30;4.10;;;6.70;99.90;;;;;;5053301;28;20245;-78
2021/01/15 02:51:15;;;;;;;8.07;3.87;;;6.70;99.90;;;;;;5054094;28;20236;-78
2021/01/15 02:53:43;;;;;;;5.67;3.53;;;6.70;99.90;;;;;;5053820;28;20630;-78
2021/01/15 02:56:13;;;;;;;8.40;4.27;;;6.70;99.90;;;;;;5056330;28;20689;-78
2021/01/15 02:58:40;;;;;;;6.67;3.90;;;6.70;99.90;;;;;;5053964;28;20287;-77
2021/01/15 03:01:07;;;;;;;7.17;3.90;;;6.70;99.90;;;;;;5054149;28;20243;-78
2021/01/15 03:03:38;;;;;;;6.60;3.80;;;6.70;99.90;;;;;;5054078;28;20228;-78
2021/01/15 03:06:11;;;;;;;5.63;3.67;;;6.70;99.90;;;;;;5053608;28;20285;-78
2021/01/15 03:08:38;;;;;;;6.80;3.57;;;6.70;99.90;;;;;;5053573;28;20259;-78
2021/01/15 03:11:07;;;;;;;8.93;4.30;;;6.70;99.90;;;;;;5066106;28;20287;-79
2021/01/15 03:13:35;;;;;;;5.57;3.77;;;6.70;99.90;;;;;;5062131;28;20632;-79
2021/01/15 03:16:03;;;;;;;6.90;3.80;;;6.70;99.90;;;;;;5053707;28;20240;-78
2021/01/15 03:18:31;;;;;;;7.47;3.80;;;6.70;99.90;;;;;;5053887;28;20290;-78
2021/01/15 03:21:00;;;;;;;6.80;3.80;;;6.60;99.90;;;;;;5054795;28;20257;-78
2021/01/15 03:23:28;;;;;;;7.97;3.80;;;6.60;99.90;;;;;;5032194;28;20215;-78
2021/01/15 03:25:56;;;;;;;7.53;3.90;;;6.60;99.90;;;;;;5032964;28;20207;-78
2021/01/15 03:28:22;;;;;;;8.23;4.27;;;6.60;99.90;;;;;;5047022;28;20665;-78
2021/01/15 03:30:49;;;;;;;8.30;3.90;;;6.50;99.90;;;;;;5053411;28;20239;-77
2021/01/15 03:33:15;;;;;;;7.57;4.30;;;6.50;99.90;;;;;;5057592;28;20719;-78
2021/01/15 03:35:42;;;;;;;5.87;4.37;;;6.50;99.90;;;;;;5060436;28;20230;-78
2021/01/15 03:38:09;;;;;;;5.73;4.00;;;6.50;99.90;;;;;;5053288;28;20199;-78
2021/01/15 03:40:38;;;;;;;7.57;3.93;;;6.50;99.90;;;;;;5052170;28;20642;-78
2021/01/15 03:43:11;;;;;;;7.03;4.50;;;6.50;99.90;;;;;;5053188;28;20238;-78
2021/01/15 03:45:39;;;;;;;8.73;4.23;;;6.50;99.90;;;;;;5053482;28;20278;-78
2021/01/15 03:48:06;;;;;;;7.33;4.27;;;6.50;99.90;;;;;;5053085;28;20640;-78
2021/01/15 03:50:33;;;;;;;5.07;3.80;;;6.50;99.90;;;;;;5055046;28;20204;-78
2021/01/15 03:53:00;;;;;;;9.97;4.43;;;6.40;99.90;;;;;;5053948;28;20286;-78
2021/01/15 03:55:26;;;;;;;8.10;4.67;;;6.20;99.90;;;;;;5052251;28;20246;-78
2021/01/15 03:57:54;;;;;;;8.27;4.83;;;6.00;99.90;;;;;;5053085;28;20643;-78
2021/01/15 04:00:21;;;;;;;7.93;4.77;;;5.80;99.90;;;;;;5055140;28;20618;-78
2021/01/15 04:02:47;;;;;;;9.43;5.33;;;5.80;99.90;;;;;;5055793;28;20290;-78
2021/01/15 04:05:14;;;;;;;5.80;4.80;;;5.90;99.90;;;;;;5052758;28;20231;-79
2021/01/15 04:07:41;;;;;;;7.47;5.07;;;5.90;99.90;;;;;;5052851;28;20361;-78
2021/01/15 04:10:09;;;;;;;8.27;5.20;;;5.90;99.90;;;;;;5052116;28;20637;-79
2021/01/15 04:12:36;;;;;;;8.17;5.40;;;6.00;99.90;;;;;;5052809;28;20301;-78
2021/01/15 04:15:05;;;;;;;8.00;6.43;;;6.00;99.90;;;;;;5052071;28;20690;-78
2021/01/15 04:17:32;;;;;;;7.77;6.40;;;6.10;99.90;;;;;;5057550;28;20223;-77
2021/01/15 04:19:59;;;;;;;7.93;6.03;;;6.10;99.90;;;;;;5061816;28;20266;-78
2021/01/15 04:22:25;;;;;;;8.80;6.93;;;6.10;99.90;;;;;;5051695;28;20273;-78
2021/01/15 04:24:52;;;;;;;8.03;6.17;;;6.00;99.90;;;;;;5051825;28;20724;-78
2021/01/15 04:27:18;;;;;;;9.77;6.53;;;6.00;99.90;;;;;;5051528;28;20305;-78
2021/01/15 04:29:44;;;;;;;8.87;6.30;;;6.00;99.90;;;;;;5052453;28;20286;-78
2021/01/15 04:32:12;;;;;;;9.30;6.60;;;6.10;99.90;;;;;;5052468;28;20250;-78
2021/01/15 04:34:38;;;;;;;9.43;6.57;;;6.00;99.90;;;;;;5052278;28;20218;-78
2021/01/15 04:37:05;;;;;;;7.87;6.50;;;6.00;99.90;;;;;;5051628;28;20694;-78
2021/01/15 04:39:31;;;;;;;10.00;7.20;;;6.00;99.90;;;;;;5051873;28;20237;-78
2021/01/15 04:41:58;;;;;;;10.33;6.80;;;6.00;99.90;;;;;;5052512;28;20239;-78
2021/01/15 04:44:26;;;;;;;11.70;6.73;;;6.10;99.90;;;;;;5051471;28;20230;-78
2021/01/15 04:46:56;;;;;;;11.40;7.00;;;6.10;99.90;;;;;;5051657;28;20255;-78
2021/01/15 04:49:27;;;;;;;8.27;6.63;;;6.10;99.90;;;;;;5051763;28;20719;-78
2021/01/15 04:51:57;;;;;;;11.00;6.80;;;6.10;99.90;;;;;;5052438;28;20232;-78
2021/01/15 04:54:35;;;;;;;9.17;6.63;;;6.10;99.90;;;;;;5051566;28;20203;-78
2021/01/15 04:57:05;;;;;;;9.50;7.27;;;6.10;99.90;;;;;;5052114;28;20195;-78
2021/01/15 04:59:34;;;;;;;11.77;8.00;;;6.10;99.90;;;;;;5052098;28;20298;-78
2021/01/15 05:02:08;;;;;;;11.67;7.60;;;6.10;99.90;;;;;;5055137;28;20291;-78
2021/01/15 05:04:35;;;;;;;11.23;7.97;;;6.10;99.90;;;;;;5051541;28;20211;-78
2021/01/15 05:07:03;;;;;;;10.63;7.70;;;6.00;99.90;;;;;;5050498;28;20317;-78
2021/01/15 05:09:39;;;;;;;10.57;7.83;;;6.00;99.90;;;;;;5051272;28;20298;-78
2021/01/15 05:12:11;;;;;;;11.77;8.00;;;6.00;99.90;;;;;;5053379;28;20284;-78
2021/01/15 05:14:38;;;;;;;11.20;7.93;;;6.00;99.90;;;;;;5061740;28;20235;-78
2021/01/15 05:17:07;;;;;;;12.00;7.87;;;6.00;99.90;;;;;;5076367;28;20246;-78
2021/01/15 05:19:38;;;;;;;10.83;7.60;;;6.00;99.90;;;;;;5074912;28;20242;-78
2021/01/15 05:22:05;;;;;;;10.63;7.67;;;6.00;99.90;;;;;;5075236;28;20314;-78
2021/01/15 05:24:31;;;;;;;11.10;8.47;;;5.90;99.90;;;;;;5056861;28;20239;-78
2021/01/15 05:27:00;;;;;;;12.07;8.00;;;5.80;99.90;;;;;;5056115;28;20306;-78
2021/01/15 05:29:27;;;;;;;9.93;7.70;;;5.70;99.90;;;;;;5055771;28;20603;-78
2021/01/15 05:31:56;;;;;;;9.40;7.80;;;5.60;99.90;;;;;;5055362;28;20206;-78
2021/01/15 05:34:23;;;;;;;13.63;8.23;;;5.60;99.90;;;;;;5055743;28;20291;-78
2021/01/15 05:36:51;;;;;;;10.30;8.07;;;5.60;99.90;;;;;;5053584;28;20232;-78
2021/01/15 05:39:19;;;;;;;12.53;7.70;;;5.60;99.90;;;;;;5055525;28;20253;-78
2021/01/15 05:41:47;;;;;;;11.93;8.40;;;5.60;99.90;;;;;;5054992;28;20265;-78
2021/01/15 05:44:25;;;;;;;10.73;8.27;;;5.60;99.90;;;;;;5055099;28;20749;-78
2021/01/15 05:46:52;;;;;;;12.27;7.80;;;5.70;99.90;;;;;;5056049;28;20641;-78
2021/01/15 05:49:18;;;;;;;10.00;7.60;;;5.60;99.90;;;;;;5055192;28;20242;-78
2021/01/15 05:51:45;;;;;;;10.80;7.90;;;5.60;99.90;;;;;;5054314;28;20286;-78
2021/01/15 05:54:27;;;;;;;11.37;7.77;;;5.60;99.90;;;;;;5057380;28;20294;-78
2021/01/15 05:56:54;;;;;;;10.83;7.67;;;5.60;99.90;;;;;;5055127;28;20289;-78
2021/01/15 05:59:20;;;;;;;9.67;7.83;;;5.60;99.90;;;;;;5055344;28;20238;-78
2021/01/15 06:01:48;;;;;;;10.13;7.63;;;5.60;99.90;;;;;;5054533;28;20257;-78
2021/01/15 06:04:17;;;;;;;10.93;7.73;;;5.60;99.90;;;;;;5054953;28;20293;-78
2021/01/15 06:06:44;;;;;;;10.83;8.13;;;5.60;99.90;;;;;;5054281;28;20241;-79
2021/01/15 06:09:13;;;;;;;11.33;8.50;;;5.60;99.90;;;;;;5054804;28;20237;-80
2021/01/15 06:11:41;;;;;;;9.90;7.80;;;5.60;99.90;;;;;;5054538;28;20286;-80
2021/01/15 06:14:21;;;;;;;10.30;8.10;;;5.60;99.90;;;;;;5055118;28;20237;-80
2021/01/15 06:16:48;;;;;;;10.07;7.70;;;5.60;99.90;;;;;;5054237;28;20201;-80
2021/01/15 06:19:15;;;;;;;12.63;8.03;;;5.60;99.90;;;;;;5053892;28;20250;-81
2021/01/15 06:21:53;;;;;;;12.00;7.90;;;5.60;99.90;;;;;;5054264;28;20326;-80
2021/01/15 06:24:23;;;;;;;12.00;7.97;;;5.60;99.90;;;;;;5052998;28;20197;-80
2021/01/15 06:27:05;;;;;;;9.83;7.23;;;5.60;99.90;;;;;;5053691;28;20689;-79
2021/01/15 06:29:44;;;;;;;11.73;8.17;;;5.60;99.90;;;;;;5054901;28;20201;-79
2021/01/15 06:32:11;;;;;;;11.67;7.27;;;5.60;99.90;;;;;;5054014;28;20238;-79
2021/01/15 06:34:48;;;;;;;11.67;7.17;;;5.60;99.90;;;;;;5059016;28;20669;-78
2021/01/15 06:37:20;;;;;;;8.60;6.90;;;5.60;99.90;;;;;;5054349;28;20623;-77
2021/01/15 06:40:07;;;;;;;9.30;6.30;;;5.50;99.90;;;;;;5054072;28;20203;-76
2021/01/15 06:42:44;;;;;;;8.90;6.20;;;5.30;99.90;;;;;;5053677;28;20229;-76
2021/01/15 06:45:14;;;;;;;8.80;6.90;;;5.30;99.90;;;;;;5062282;28;20344;-77
2021/01/15 06:47:41;;;;;;;12.13;7.13;;;5.30;99.90;;;;;;5053437;28;20227;-77
2021/01/15 06:50:14;;;;;;;8.67;6.33;;;5.40;99.90;;;;;;5053371;28;20677;-77
2021/01/15 06:52:47;;;;;;;9.17;6.50;;;5.50;99.90;;;;;;5055584;28;20240;-79
2021/01/15 06:55:17;;;;;;;6.97;5.50;;;5.50;99.90;;;;;;5053856;28;20247;-79
2021/01/15 06:57:50;;;;;;;7.33;5.80;;;5.50;99.90;;;;;;5057529;28;20262;-79
2021/01/15 07:00:22;;;;;;;7.53;5.13;;;5.60;99.90;;;;;;5068600;28;20628;-78
2021/01/15 07:03:22;;;;;;;7.43;5.00;;;5.60;99.90;;;;;;5055281;28;20581;-78
2021/01/15 07:05:49;;;;;;;6.13;4.87;;;5.50;99.90;;;;;;5053563;28;20259;-78
2021/01/15 07:08:15;;;;;;;7.67;5.27;;;5.60;99.90;;;;;;5052494;28;20316;-78
2021/01/15 07:10:46;;;;;;;7.40;5.10;;;5.50;99.90;;;;;;5052064;28;20225;-78
2021/01/15 07:13:21;;;;;;;6.87;5.00;;;5.40;99.90;;;;;;5054931;28;20200;-79
2021/01/15 07:15:54;;;;;;;6.33;5.50;;;5.50;99.90;;;;;;5058886;28;20214;-78
2021/01/15 07:18:31;;;;;;;6.10;5.10;;;5.40;99.90;;;;;;5070357;28;20208;-77
2021/01/15 07:21:07;;;;;;;6.13;5.10;;;5.40;99.90;;;;;;5073398;28;20232;-78
2021/01/15 07:23:52;;;;;;;6.77;5.33;;;5.40;99.90;;;;;;5055358;28;20202;-78
2021/01/15 07:26:22;;;;;;;7.27;5.47;;;5.40;99.90;;;;;;5044089;28;20205;-78
2021/01/15 07:28:56;;;;;;;6.80;5.47;;;5.40;99.90;;;;;;5043605;28;20228;-78
2021/01/15 07:31:23;;;;;;;9.23;6.03;;;5.40;99.90;;;;;;5055849;28;20202;-78
2021/01/15 07:34:01;;;;;;;7.13;5.67;;;5.40;99.90;;;;;;5053849;28;20286;-78
2021/01/15 07:36:33;;;;;;;8.60;6.50;;;5.30;99.90;;;;;;5052608;28;20197;-78
2021/01/15 07:39:18;;;;;;;8.47;6.83;;;5.40;99.90;;;;;;5052063;28;20242;-78
2021/01/15 07:41:49;;;;;;;8.13;5.73;;;5.30;99.90;;;;;;5048037;28;20205;-78
2021/01/15 07:44:40;;;;;;;8.57;6.47;;;5.30;99.90;;;;;;5056167;28;20231;-77
2021/01/15 07:47:12;;;;;;;9.03;6.47;;;5.30;99.90;;;;;;5039439;28;20229;-78
2021/01/15 07:49:47;;;;;;;7.67;6.40;;;5.20;99.90;;;;;;5052134;28;20202;-78
2021/01/15 07:52:14;;;;;;;9.37;6.83;;;5.20;99.90;;;;;;5049027;28;20282;-78
2021/01/15 07:55:01;;;;;;;9.60;7.10;;;5.20;99.90;;;;;;5051714;28;20684;-78
2021/01/15 07:57:30;;;;;;;9.17;7.13;;;5.20;99.90;;;;;;5051654;28;20271;-78
2021/01/15 07:59:58;;;;;;;8.53;6.67;;;5.20;99.90;;;;;;5051833;28;20224;-78
2021/01/15 08:02:24;;;;;;;9.90;7.30;;;5.20;99.90;;;;;;5044362;28;20279;-78
2021/01/15 08:05:02;;;;;;;8.90;7.40;;;5.20;99.90;;;;;;5052310;28;20213;-78
2021/01/15 08:07:36;;;;;;;11.33;8.00;;;5.30;99.90;;;;;;5044431;28;20244;-78
2021/01/15 08:10:09;;;;;;;9.53;7.37;;;5.30;99.90;;;;;;5058350;28;20233;-79
2021/01/15 08:12:40;;;;;;;10.73;8.17;;;5.20;99.90;;;;;;5051761;28;20669;-79
2021/01/15 08:15:27;;;;;;;10.30;7.57;;;5.20;99.90;;;;;;5051089;28;21629;-79
2021/01/15 08:17:54;;;;;;;9.33;7.57;;;5.20;99.90;;;;;;5051791;28;20233;-79
2021/01/15 08:20:21;;;;;;;10.57;7.87;;;5.30;99.90;;;;;;5055064;28;20260;-79
2021/01/15 08:22:49;;;;;;;10.37;8.50;;;5.30;99.90;;;;;;5050954;28;20267;-79
2021/01/15 08:25:25;;;;;;;11.07;8.40;;;5.30;99.90;;;;;;5050992;28;20235;-79
2021/01/15 08:27:53;;;;;;;11.23;8.13;;;5.30;99.90;;;;;;5065502;28;20219;-79
2021/01/15 08:30:20;;;;;;;10.80;8.30;;;5.30;99.90;;;;;;5056208;28;20294;-79
2021/01/15 08:32:50;;;;;;;11.70;8.80;;;5.30;99.90;;;;;;5052327;28;20289;-79
2021/01/15 08:35:23;;;;;;;12.93;9.27;;;5.30;99.90;;;;;;5053347;28;20213;-79
2021/01/15 08:37:55;;;;;;;11.70;8.53;;;5.40;99.90;;;;;;5050958;28;20192;-79
2021/01/15 08:40:29;;;;;;;11.00;8.70;;;5.40;99.90;;;;;;5056437;28;20228;-76
2021/01/15 08:42:59;;;;;;;11.93;9.67;;;5.40;99.90;;;;;;5050886;28;20234;-76
2021/01/15 08:45:27;;;;;;;11.97;9.07;;;5.40;99.90;;;;;;5051104;28;20688;-77
2021/01/15 08:47:55;;;;;;;13.40;9.03;;;5.50;99.90;;;;;;5045540;28;20229;-79
2021/01/15 08:50:23;;;;;;;11.53;9.40;;;5.50;99.90;;;;;;5054849;28;20203;-79
2021/01/15 08:52:49;;;;;;;13.07;9.80;;;5.80;99.90;;;;;;5048698;28;20297;-79
2021/01/15 08:55:19;;;;;;;10.40;8.70;;;6.90;99.90;;;;;;5051629;28;20301;-79
2021/01/15 08:57:47;;;;;;;11.90;8.20;;;6.80;99.90;;;;;;5050527;28;20207;-78
2021/01/15 09:00:18;;;;;;;11.27;9.20;;;6.30;99.90;;;;;;5048270;28;20868;-79
2021/01/15 09:02:46;;;;;;;11.43;9.43;;;6.10;99.90;;;;;;5050541;28;20282;-79
2021/01/15 09:05:15;;;;;;;13.17;10.40;;;6.00;99.90;;;;;;5047472;28;20740;-79
2021/01/15 09:07:45;;;;;;;11.73;9.60;;;5.90;99.90;;;;;;5050321;28;20268;-79
2021/01/15 09:10:13;;;;;;;13.97;10.13;;;5.90;99.90;;;;;;5030422;28;20215;-77
2021/01/15 09:12:43;;;;;;;12.50;10.03;;;5.80;99.90;;;;;;5048713;28;20238;-77
2021/01/15 09:15:20;;;;;;;11.67;9.67;;;5.80;99.90;;;;;;5050616;28;20678;-77
2021/01/15 09:17:48;;;;;;;14.50;10.23;;;5.80;99.90;;;;;;5049819;28;20233;-77
2021/01/15 09:20:16;;;;;;;12.97;10.33;;;5.80;99.90;;;;;;5049825;28;20255;-77
2021/01/15 09:22:43;;;;;;;13.00;10.13;;;5.80;99.90;;;;;;5050609;28;20598;-77
2021/01/15 09:25:11;;;;;;;13.13;10.30;;;5.90;99.90;;;;;;5050121;28;20251;-77
2021/01/15 09:27:37;;;;;;;13.47;9.77;;;5.90;99.90;;;;;;5049938;28;20660;-77
2021/01/15 09:30:05;;;;;;;13.50;10.30;;;6.00;99.90;;;;;;5053931;28;20287;-77
2021/01/15 09:32:32;;;;;;;14.13;10.90;;;6.00;99.90;;;;;;5052848;28;20639;-79
2021/01/15 09:34:59;;;;;;;13.67;10.30;;;6.10;99.90;;;;;;5050323;28;20230;-79
2021/01/15 09:37:26;;;;;;;13.27;10.17;;;6.20;99.90;;;;;;5057399;28;20279;-79
2021/01/15 09:39:52;;;;;;;13.40;10.67;;;6.10;99.90;;;;;;5056346;28;20241;-79
2021/01/15 09:42:19;;;;;;;16.50;10.90;;;6.10;99.90;;;;;;5050547;28;20245;-79
2021/01/15 09:44:45;;;;;;;13.93;10.43;;;6.10;99.90;;;;;;5050916;28;20253;-79
2021/01/15 09:47:11;;;;;;;13.53;10.37;;;6.10;99.90;;;;;;5050565;28;20231;-77
2021/01/15 09:49:38;;;;;;;12.30;10.33;;;6.00;99.90;;;;;;5050365;28;20241;-78
2021/01/15 09:52:05;;;;;;;15.07;10.67;;;6.10;99.90;;;;;;5051093;28;20282;-79
2021/01/15 09:54:36;;;;;;;13.47;10.53;;;6.10;99.90;;;;;;5060169;28;20203;-79
2021/01/15 09:57:03;;;;;;;13.33;10.63;;;6.20;99.90;;;;;;5049666;28;20196;-79
2021/01/15 09:59:29;;;;;;;13.33;10.07;;;6.30;99.90;;;;;;5050942;28;20286;-77
2021/01/15 10:01:56;;;;;;;12.60;9.87;;;6.30;99.90;;;;;;5053219;28;20238;-78
2021/01/15 10:04:23;;;;;;;12.00;9.43;;;6.50;99.90;;;;;;5053809;28;20200;-79
2021/01/15 10:06:50;;;;;;;11.50;9.37;;;6.60;99.90;;;;;;5053553;28;20282;-79
2021/01/15 10:09:16;;;;;;;11.70;9.80;;;6.60;99.90;;;;;;5053453;28;20302;-78
2021/01/15 10:11:45;;;;;;;11.23;9.53;;;6.70;99.90;;;;;;5053284;28;20207;-78
2021/01/15 10:14:13;;;;;;;12.93;10.23;;;6.70;99.90;;;;;;5053457;28;20272;-79
2021/01/15 10:16:41;;;;;;;14.03;10.70;;;6.70;99.90;;;;;;5053214;28;20232;-79
2021/01/15 10:19:08;;;;;;;12.87;10.53;;;6.90;99.90;;;;;;5053177;28;20577;-77
2021/01/15 10:21:38;;;;;;;13.60;10.73;;;6.90;99.90;;;;;;5053589;28;20655;-77
2021/01/15 10:24:07;;;;;;;11.43;10.00;;;7.00;99.90;;;;;;5052241;28;20683;-79
2021/01/15 10:26:35;;;;;;;12.17;9.83;;;7.10;99.90;;;;;;5053885;28;20231;-78
2021/01/15 10:29:05;;;;;;;12.00;9.80;;;7.20;99.90;;;;;;5053946;28;20679;-79
2021/01/15 10:31:35;;;;;;;11.20;9.73;;;7.00;99.90;;;;;;5052266;28;20551;-79
2021/01/15 10:34:03;;;;;;;15.43;10.20;;;7.00;99.90;;;;;;5053897;28;20235;-79
2021/01/15 10:36:31;;;;;;;14.63;9.97;;;7.00;99.90;;;;;;5048282;28;20346;-79
2021/01/15 10:38:57;;;;;;;12.70;10.10;;;7.10;99.90;;;;;;5053958;28;20639;-79
2021/01/15 10:41:32;;;;;;;11.77;9.70;;;7.00;99.90;;;;;;5052982;28;20244;-78
2021/01/15 10:44:00;;;;;;;14.40;9.70;;;6.80;99.90;;;;;;5053484;28;20304;-79
2021/01/15 10:46:35;;;;;;;12.50;9.93;;;6.70;99.90;;;;;;5053407;28;20244;-79
2021/01/15 10:49:02;;;;;;;11.30;9.57;;;6.60;99.90;;;;;;5050924;28;20227;-79
2021/01/15 10:51:29;;;;;;;13.97;10.17;;;6.60;99.90;;;;;;5049662;28;20230;-79
2021/01/15 10:53:55;;;;;;;11.77;9.27;;;6.80;99.90;;;;;;5053314;28;20199;-79
2021/01/15 10:56:22;;;;;;;13.03;9.77;;;6.70;99.90;;;;;;5052851;28;20649;-78
2021/01/15 10:58:49;;;;;;;12.77;9.83;;;6.60;99.90;;;;;;5053905;28;20283;-76
2021/01/15 11:01:15;;;;;;;12.80;9.97;;;6.70;99.90;;;;;;5053382;28;20227;-77
2021/01/15 11:03:45;;;;;;;13.77;10.67;;;6.80;99.90;;;;;;5052918;28;20305;-77
2021/01/15 11:06:18;;;;;;;13.90;10.33;;;6.70;99.90;;;;;;5053218;28;20208;-79
2021/01/15 11:08:45;;;;;;;14.50;9.57;;;6.80;99.90;;;;;;5053021;28;20232;-78
2021/01/15 11:11:11;;;;;;;11.53;9.93;;;6.70;99.90;;;;;;5052831;28;20223;-78
2021/01/15 11:13:38;;;;;;;14.63;10.20;;;6.80;99.90;;;;;;5052625;28;21673;-78
2021/01/15 11:16:11;;;;;;;12.43;9.60;;;6.90;99.90;;;;;;5053478;28;20223;-78
2021/01/15 11:18:38;;;;;;;13.67;9.97;;;7.00;99.90;;;;;;5059503;28;20278;-78
2021/01/15 11:21:05;;;;;;;12.07;8.80;;;7.10;99.90;;;;;;5052651;28;20258;-78
2021/01/15 11:23:31;;;;;;;11.33;9.10;;;7.10;99.90;;;;;;5052850;28;20258;-78
2021/01/15 11:25:58;;;;;;;12.23;8.77;;;7.20;99.90;;;;;;5053370;28;20599;-78
2021/01/15 11:28:24;;;;;;;12.40;8.87;;;7.10;99.90;;;;;;5052682;28;20302;-77
2021/01/15 11:30:51;;;;;;;12.07;8.60;;;7.20;99.90;;;;;;5053254;28;20661;-78
2021/01/15 11:33:19;;;;;;;14.23;10.57;;;7.10;99.90;;;;;;5053468;28;20640;-79
2021/01/15 11:35:45;;;;;;;16.90;12.83;;;7.20;99.90;;;;;;5052932;28;20645;-78
2021/01/15 11:38:12;;;;;;;20.77;12.73;;;7.50;99.90;;;;;;5052467;28;20275;-78
2021/01/15 11:40:38;;;;;;;14.03;9.70;;;7.40;99.90;;;;;;5053074;28;20290;-78
2021/01/15 11:43:05;;;;;;;15.30;10.43;;;7.30;99.90;;;;;;5057397;28;20609;-79
2021/01/15 11:45:31;;;;;;;13.40;9.43;;;7.30;99.90;;;;;;5065708;28;20233;-78
2021/01/15 11:47:57;;;;;;;34.37;28.13;;;7.20;99.90;;;;;;5053017;28;20269;-79
2021/01/15 11:50:26;;;;;;;12.43;8.73;;;7.20;99.90;;;;;;5052769;28;20363;-78
2021/01/15 11:52:54;;;;;;;11.93;9.90;;;7.30;99.90;;;;;;5052332;28;20231;-79
2021/01/15 11:55:21;;;;;;;14.93;10.03;;;7.30;99.90;;;;;;5070709;28;20294;-78
2021/01/15 11:57:50;;;;;;;11.53;7.93;;;7.40;99.90;;;;;;5072985;28;20226;-79
2021/01/15 12:00:18;;;;;;;11.90;8.40;;;7.30;99.90;;;;;;5053140;28;20199;-79
2021/01/15 12:02:45;;;;;;;12.40;8.43;;;7.30;99.90;;;;;;5052373;28;20244;-79
2021/01/15 12:05:12;;;;;;;17.70;13.67;;;7.30;99.90;;;;;;5069229;28;20254;-80
2021/01/15 12:07:40;;;;;;;12.37;8.17;;;7.70;99.90;;;;;;5060301;28;20630;-78
2021/01/15 12:10:08;;;;;;;8.43;6.63;;;8.70;99.90;;;;;;5057018;28;20199;-79
2021/01/15 12:12:38;;;;;;;9.50;7.83;;;9.40;99.90;;;;;;5053360;28;20721;-79
2021/01/15 12:15:07;;;;;;;14.10;11.80;;;9.20;99.90;;;;;;5052617;28;20229;-78
2021/01/15 12:17:33;;;;;;;17.23;13.53;;;8.40;99.90;;;;;;5055212;28;20713;-78
2021/01/15 12:20:00;;;;;;;11.03;7.43;;;8.00;99.90;;;;;;5054060;28;20251;-78
2021/01/15 12:22:27;;;;;;;9.07;6.70;;;8.10;99.90;;;;;;5051273;28;20272;-78
2021/01/15 12:24:57;;;;;;;8.43;5.83;;;8.50;99.90;;;;;;5052172;28;20291;-78
2021/01/15 12:27:24;;;;;;;7.73;5.40;;;8.90;99.90;;;;;;5052607;28;20240;-79
2021/01/15 12:29:50;;;;;;;8.17;4.93;;;8.50;99.90;;;;;;5052151;28;20207;-78
2021/01/15 12:32:17;;;;;;;9.53;6.10;;;8.60;99.90;;;;;;5055579;28;20246;-79
2021/01/15 12:34:43;;;;;;;9.63;5.00;;;8.80;99.90;;;;;;5052259;28;20234;-78
2021/01/15 12:37:09;;;;;;;7.70;4.17;;;9.10;99.90;;;;;;5066264;28;20233;-78
2021/01/15 12:39:36;;;;;;;6.67;4.33;;;9.20;99.90;;;;;;5057629;28;20692;-79
2021/01/15 12:42:03;;;;;;;7.13;4.60;;;9.20;99.90;;;;;;5052375;28;20239;-78
2021/01/15 12:44:30;;;;;;;7.40;4.07;;;9.20;99.90;;;;;;5054305;28;20243;-78
2021/01/15 12:46:56;;;;;;;9.67;3.90;;;9.50;99.90;;;;;;5060673;28;20341;-78
2021/01/15 12:49:22;;;;;;;6.83;3.93;;;9.30;99.90;;;;;;5072119;28;20376;-79
2021/01/15 12:51:49;;;;;;;8.20;3.60;;;9.10;99.90;;;;;;5058681;28;20239;-78
2021/01/15 12:54:15;;;;;;;5.00;3.37;;;8.90;99.90;;;;;;5051644;28;20286;-79
2021/01/15 12:56:41;;;;;;;6.00;3.90;;;8.90;99.90;;;;;;5055957;28;20242;-79
2021/01/15 12:59:12;;;;;;;7.77;4.10;;;8.80;99.90;;;;;;5058711;28;20246;-79
2021/01/15 13:01:39;;;;;;;7.60;4.97;;;8.50;99.90;;;;;;5065998;28;20292;-79